Time;durP1;ratioP1;P1;durP2;ratioP2;P2;SDS_P1;SDS_P2;PMS_P1;PMS_P2;Temp;Humidity;BMP_temperature;BMP_pressure;BME280_temperature;BME280_humidity;BME280_pressure;Samples;Min_cycle;Max_cycle;Signal;HPM_P1;HPM_P2
2024/01/11 00:02:24;;;;;;;7.60;6.90;;;16.40;55.00;17.10;102203.00;;;;5047451;28;20258;-52
2024/01/11 00:04:50;;;;;;;7.87;7.17;;;16.40;54.90;17.10;102191.00;;;;5073875;28;20238;-47
2024/01/11 00:07:15;;;;;;;7.30;6.70;;;16.50;54.90;17.10;102197.00;;;;5076022;28;20664;-47
2024/01/11 00:09:42;;;;;;;7.37;6.70;;;16.40;54.80;17.10;102191.00;;;;5068255;28;20284;-46
2024/01/11 00:12:08;;;;;;;7.80;7.10;;;16.40;54.90;17.10;102190.00;;;;5062367;28;20176;-46
2024/01/11 00:14:35;;;;;;;7.47;6.80;;;16.40;54.90;17.10;102189.00;;;;5069558;28;20676;-47
2024/01/11 00:17:00;;;;;;;7.00;6.40;;;16.40;54.80;17.10;102191.00;;;;5031241;28;20173;-46
2024/01/11 00:19:26;;;;;;;7.27;6.67;;;16.40;54.80;17.10;102186.00;;;;5064595;28;20532;-47
2024/01/11 00:21:52;;;;;;;7.20;6.60;;;16.40;54.80;17.10;102185.00;;;;5060896;28;20175;-47
2024/01/11 00:24:17;;;;;;;7.33;6.70;;;16.40;54.80;17.10;102188.00;;;;5061135;28;20208;-49
2024/01/11 00:26:43;;;;;;;7.80;7.03;;;16.40;54.90;17.10;102181.00;;;;5077403;28;20181;-47
2024/01/11 00:29:09;;;;;;;7.73;7.03;;;16.40;54.80;17.10;102187.00;;;;5073984;28;20586;-47
2024/01/11 00:31:35;;;;;;;7.17;6.57;;;16.40;54.70;16.90;102190.00;;;;5070049;28;20546;-48
2024/01/11 00:34:01;;;;;;;7.53;6.83;;;16.40;54.70;17.10;102193.00;;;;5070173;28;20204;-47
2024/01/11 00:36:28;;;;;;;7.00;6.40;;;16.40;54.80;17.10;102199.00;;;;5071984;28;20265;-47
2024/01/11 00:38:54;;;;;;;7.60;6.97;;;16.40;54.80;17.10;102200.00;;;;5070493;28;20170;-47
2024/01/11 00:41:19;;;;;;;7.63;6.93;;;16.40;54.80;17.10;102192.00;;;;5064031;28;20175;-47
2024/01/11 00:43:45;;;;;;;8.03;7.33;;;16.40;54.70;17.10;102208.00;;;;5070571;28;20215;-49
2024/01/11 00:46:11;;;;;;;7.13;6.53;;;16.40;54.70;17.10;102204.00;;;;5071060;28;20198;-47
2024/01/11 00:48:37;;;;;;;7.40;6.70;;;16.40;54.70;17.10;102199.00;;;;5067879;28;20632;-47
2024/01/11 00:51:05;;;;;;;7.43;6.73;;;16.40;54.60;17.10;102204.00;;;;5068938;28;20182;-48
2024/01/11 00:53:30;;;;;;;7.67;6.97;;;16.50;54.70;17.10;102196.00;;;;5069095;28;20199;-47
2024/01/11 00:56:00;;;;;;;7.30;6.60;;;16.50;54.60;17.10;102199.00;;;;5068938;28;20177;-47
2024/01/11 00:58:26;;;;;;;7.10;6.50;;;16.40;54.60;17.10;102191.00;;;;5068897;28;20178;-47
2024/01/11 01:00:55;;;;;;;7.50;6.80;;;16.40;55.00;17.10;102192.00;;;;5067877;28;20192;-46
2024/01/11 01:03:23;;;;;;;7.53;6.87;;;16.40;54.60;17.10;102192.00;;;;5067778;28;20221;-47
2024/01/11 01:05:49;;;;;;;7.10;6.50;;;16.40;54.60;17.10;102187.00;;;;5067517;28;20715;-46
2024/01/11 01:08:15;;;;;;;7.50;6.90;;;16.30;54.60;17.10;102170.00;;;;5067570;28;20207;-47
2024/01/11 01:10:40;;;;;;;7.03;6.43;;;16.40;54.80;17.10;102181.00;;;;5049038;28;20177;-47
2024/01/11 01:13:06;;;;;;;7.20;6.60;;;16.30;54.60;17.10;102191.00;;;;5067445;28;20182;-47
2024/01/11 01:15:32;;;;;;;6.97;6.37;;;16.40;54.60;17.10;102201.00;;;;5067623;28;20256;-48
2024/01/11 01:17:58;;;;;;;7.67;6.97;;;16.30;55.30;17.10;102199.00;;;;5067436;28;20189;-47
2024/01/11 01:20:23;;;;;;;7.33;6.63;;;16.40;54.70;17.10;102195.00;;;;5067533;28;20210;-47
2024/01/11 01:22:50;;;;;;;7.37;6.70;;;16.40;54.60;17.10;102200.00;;;;5067215;28;20184;-46
2024/01/11 01:25:15;;;;;;;7.10;6.50;;;16.40;54.60;17.10;102194.00;;;;5041310;28;20197;-47
2024/01/11 01:27:41;;;;;;;6.87;6.27;;;16.40;54.60;17.10;102196.00;;;;5044944;28;20206;-47
2024/01/11 01:30:08;;;;;;;7.57;6.87;;;16.40;54.50;17.10;102213.00;;;;5047449;28;20210;-47
2024/01/11 01:32:34;;;;;;;7.37;6.67;;;16.40;54.50;17.10;102201.00;;;;5067569;28;20315;-47
2024/01/11 01:35:00;;;;;;;7.23;6.53;;;16.30;54.50;17.10;102207.00;;;;5067325;28;20194;-46
2024/01/11 01:37:26;;;;;;;7.40;6.70;;;16.30;54.40;17.10;102203.00;;;;5067549;28;20539;-47
2024/01/11 01:39:51;;;;;;;7.03;6.43;;;16.30;55.00;17.10;102201.00;;;;5067101;28;20183;-47
2024/01/11 01:42:17;;;;;;;7.23;6.57;;;16.40;54.50;17.10;102196.00;;;;5067431;28;20186;-47
2024/01/11 01:44:43;;;;;;;7.00;6.40;;;16.40;54.50;17.10;102210.00;;;;5065929;28;20211;-47
2024/01/11 01:47:09;;;;;;;7.50;6.90;;;16.40;54.40;17.10;102200.00;;;;5060384;28;20207;-50
2024/01/11 01:49:35;;;;;;;7.03;6.43;;;16.40;54.50;17.10;102208.00;;;;5062024;28;20246;-47
2024/01/11 01:52:01;;;;;;;7.70;7.00;;;16.40;54.50;17.10;102214.00;;;;5075035;28;20212;-47
2024/01/11 01:54:27;;;;;;;7.40;6.80;;;16.40;54.40;17.10;102219.00;;;;5067539;28;20229;-47
2024/01/11 01:56:53;;;;;;;7.00;6.40;;;16.40;54.40;17.10;102213.00;;;;5069336;28;20260;-47
2024/01/11 01:59:18;;;;;;;6.73;6.13;;;16.40;54.30;17.10;102215.00;;;;5052783;28;20558;-47
2024/01/11 02:01:44;;;;;;;7.27;6.60;;;16.40;54.40;17.10;102219.00;;;;5027564;28;20261;-47
2024/01/11 02:04:10;;;;;;;7.20;6.60;;;16.40;54.30;17.10;102226.00;;;;5079107;28;20214;-47
2024/01/11 02:06:36;;;;;;;7.37;6.77;;;16.40;54.20;17.10;102222.00;;;;5060921;28;20278;-47
2024/01/11 02:09:04;;;;;;;7.60;6.90;;;16.40;54.30;17.10;102210.00;;;;5036237;28;20683;-47
2024/01/11 02:11:30;;;;;;;7.20;6.60;;;16.40;54.20;17.10;102219.00;;;;5079051;28;20708;-48
2024/01/11 02:13:57;;;;;;;6.80;6.20;;;16.40;54.20;17.10;102231.00;;;;5052817;28;20211;-47
2024/01/11 02:16:23;;;;;;;7.20;6.50;;;16.40;54.30;17.10;102212.00;;;;5083462;28;20186;-52
2024/01/11 02:18:48;;;;;;;6.97;6.37;;;16.40;54.20;17.10;102219.00;;;;5080637;28;20216;-47
2024/01/11 02:21:15;;;;;;;7.43;6.63;;;16.50;54.30;17.10;102216.00;;;;5063373;28;20271;-47
2024/01/11 02:23:47;;;;;;;7.53;6.83;;;16.40;54.20;17.10;102219.00;;;;5071751;28;20256;-53
2024/01/11 02:26:16;;;;;;;7.07;6.47;;;16.40;54.30;17.10;102212.00;;;;5071781;28;20667;-46
2024/01/11 02:28:45;;;;;;;7.37;6.67;;;16.40;54.30;17.10;102199.00;;;;5071456;28;20291;-51
2024/01/11 02:31:12;;;;;;;7.07;6.47;;;16.40;54.30;17.10;102207.00;;;;5071055;28;20210;-50
2024/01/11 02:33:38;;;;;;;7.77;7.07;;;16.40;54.20;17.10;102205.00;;;;5063322;28;20218;-48
2024/01/11 02:36:05;;;;;;;7.10;6.50;;;16.40;54.20;17.10;102200.00;;;;5055827;28;20214;-47
2024/01/11 02:38:32;;;;;;;7.57;6.87;;;16.30;54.10;17.10;102202.00;;;;5052513;28;20222;-47
2024/01/11 02:40:59;;;;;;;7.03;6.43;;;16.40;54.20;17.10;102219.00;;;;5052391;28;20225;-48
2024/01/11 02:43:25;;;;;;;7.43;6.73;;;16.40;54.20;17.10;102226.00;;;;5058731;28;20273;-47
2024/01/11 02:45:55;;;;;;;6.93;6.33;;;16.40;54.20;17.10;102231.00;;;;5061275;28;20310;-47
2024/01/11 02:48:21;;;;;;;7.13;6.53;;;16.40;54.20;17.10;102226.00;;;;5052556;28;20276;-47
2024/01/11 02:50:48;;;;;;;7.20;6.60;;;16.40;54.20;17.10;102221.00;;;;5069359;28;20182;-47
2024/01/11 02:53:14;;;;;;;6.77;6.17;;;16.40;54.20;17.10;102220.00;;;;5072488;28;20174;-47
2024/01/11 02:55:39;;;;;;;7.40;6.70;;;16.40;54.20;17.10;102223.00;;;;5070870;28;20183;-47
2024/01/11 02:58:05;;;;;;;7.10;6.50;;;16.40;54.20;17.10;102227.00;;;;5069356;28;20490;-47
2024/01/11 03:00:31;;;;;;;7.57;6.87;;;16.40;54.10;17.10;102154.00;;;;5069111;28;20185;-47
2024/01/11 03:02:56;;;;;;;7.23;6.63;;;16.50;54.20;17.10;102222.00;;;;5069025;28;20187;-47
2024/01/11 03:05:22;;;;;;;6.80;6.20;;;16.40;54.10;17.10;102215.00;;;;5051748;28;20774;-47
2024/01/11 03:07:48;;;;;;;7.43;6.73;;;16.40;54.00;17.00;102210.00;;;;5069485;28;20181;-46
2024/01/11 03:10:14;;;;;;;6.87;6.27;;;16.40;54.00;17.10;102215.00;;;;5069413;28;20235;-47
2024/01/11 03:12:40;;;;;;;7.07;6.47;;;16.40;54.00;17.10;102213.00;;;;5069021;28;20560;-48
2024/01/11 03:15:06;;;;;;;7.30;6.70;;;16.40;54.20;17.10;102213.00;;;;5069386;28;20275;-47
2024/01/11 03:17:34;;;;;;;7.03;6.43;;;16.40;54.10;17.10;102211.00;;;;5068996;28;20498;-46
2024/01/11 04:11:48;;;;;;;7.40;6.80;;;16.40;53.90;16.90;102208.00;;;;5073592;28;20221;-47
2024/01/11 04:14:14;;;;;;;7.17;6.57;;;16.30;53.80;16.90;102218.00;;;;5078354;28;20256;-47
2024/01/11 04:16:43;;;;;;;6.80;6.20;;;16.40;53.90;16.90;102221.00;;;;5053008;28;20595;-47
2024/01/11 04:19:09;;;;;;;6.70;6.10;;;16.30;53.80;16.90;102205.00;;;;5089629;28;20177;-48
2024/01/11 04:21:37;;;;;;;7.47;6.77;;;16.40;53.90;16.90;102232.00;;;;5073773;28;20670;-48
2024/01/11 04:24:03;;;;;;;7.27;6.67;;;16.30;53.80;17.00;102231.00;;;;5077854;28;20276;-47
2024/01/11 04:26:28;;;;;;;6.97;6.37;;;16.40;53.80;17.00;102238.00;;;;5084391;28;20218;-53
2024/01/11 04:28:54;;;;;;;7.50;6.80;;;16.40;53.80;16.80;102232.00;;;;5082222;28;20271;-46
2024/01/11 04:31:20;;;;;;;6.97;6.37;;;16.40;53.80;17.00;102246.00;;;;5080211;28;20176;-47
2024/01/11 04:33:46;;;;;;;7.00;6.40;;;16.40;53.80;17.00;102245.00;;;;5053271;28;20195;-47
2024/01/11 04:36:12;;;;;;;7.13;6.53;;;16.40;53.80;17.00;102250.00;;;;5069367;28;20181;-47
2024/01/11 04:38:38;;;;;;;7.43;6.73;;;16.40;53.80;17.00;102241.00;;;;5068857;28;20182;-47
2024/01/11 04:41:11;;;;;;;7.37;6.77;;;16.40;53.80;17.00;102230.00;;;;5060857;28;20179;-48
2024/01/11 04:43:41;;;;;;;7.40;6.70;;;16.40;53.80;17.00;102234.00;;;;5068903;28;20205;-47
2024/01/11 04:46:17;;;;;;;6.73;6.13;;;16.40;53.80;17.00;102249.00;;;;5076117;28;20198;-47
2024/01/11 04:48:42;;;;;;;7.13;6.43;;;16.40;53.80;17.00;102248.00;;;;5067467;28;20730;-47
2024/01/11 04:51:08;;;;;;;6.90;6.30;;;16.40;53.70;17.00;102245.00;;;;5068766;28;20181;-47
2024/01/11 04:53:38;;;;;;;7.07;6.37;;;16.30;53.70;17.00;102244.00;;;;5068520;28;20191;-47
2024/01/11 04:56:04;;;;;;;7.30;6.60;;;16.30;53.70;17.00;102245.00;;;;5061024;28;20181;-47
2024/01/11 04:58:29;;;;;;;7.43;6.73;;;16.40;53.80;17.00;102246.00;;;;5068790;28;20194;-47
2024/01/11 05:00:55;;;;;;;7.47;6.80;;;16.30;53.70;17.00;102240.00;;;;5063391;28;20212;-47
2024/01/11 05:03:21;;;;;;;7.60;6.90;;;16.40;53.80;17.00;102249.00;;;;5067857;28;20265;-46
2024/01/11 05:05:46;;;;;;;7.13;6.50;;;16.30;53.70;17.00;102238.00;;;;5068378;28;20658;-47
2024/01/11 05:08:12;;;;;;;7.17;6.50;;;16.40;53.80;17.00;102252.00;;;;5066824;28;20174;-47
2024/01/11 05:10:38;;;;;;;7.30;6.60;;;16.40;53.80;17.00;102240.00;;;;5068298;28;20176;-47
2024/01/11 05:13:03;;;;;;;6.87;6.27;;;16.30;53.70;17.00;102248.00;;;;5076168;28;20179;-47
2024/01/11 05:15:29;;;;;;;7.13;6.50;;;16.40;53.80;17.00;102246.00;;;;5068150;28;20200;-47
2024/01/11 05:17:56;;;;;;;7.33;6.67;;;16.30;53.70;17.00;102250.00;;;;5067503;28;20214;-47
2024/01/11 05:20:22;;;;;;;7.13;6.53;;;16.40;53.70;17.00;102244.00;;;;5068508;28;20177;-51
2024/01/11 05:22:48;;;;;;;6.67;6.07;;;16.40;53.70;17.00;102253.00;;;;5050331;28;20186;-47
2024/01/11 05:25:14;;;;;;;7.50;6.80;;;16.40;53.60;17.00;102266.00;;;;5068565;28;20200;-48
2024/01/11 05:27:40;;;;;;;7.13;6.53;;;16.40;53.60;17.00;102251.00;;;;5067404;28;20264;-47
2024/01/11 05:30:06;;;;;;;7.33;6.63;;;16.40;53.60;17.00;102259.00;;;;5071690;28;20230;-47
2024/01/11 05:32:32;;;;;;;7.80;7.00;;;16.40;53.60;17.00;102260.00;;;;5066531;28;20732;-47
2024/01/11 05:34:58;;;;;;;7.13;6.43;;;16.40;53.70;17.00;102262.00;;;;5077772;28;20204;-47
2024/01/11 05:37:23;;;;;;;7.67;6.97;;;16.40;53.80;17.00;102270.00;;;;5072041;28;20251;-47
2024/01/11 05:39:50;;;;;;;7.10;6.50;;;16.40;53.90;17.00;102265.00;;;;5071702;28;20233;-47
2024/01/11 05:42:15;;;;;;;8.43;6.57;;;16.40;54.00;17.00;102267.00;;;;5071973;28;20183;-47
2024/01/11 05:44:41;;;;;;;7.90;7.10;;;16.40;54.00;17.00;102269.00;;;;5079337;28;20211;-47
2024/01/11 05:47:07;;;;;;;10.73;6.50;;;16.40;54.10;17.00;102269.00;;;;5070974;28;20197;-47
2024/01/11 05:49:32;;;;;;;8.50;6.87;;;16.40;54.00;17.00;102269.00;;;;5071496;28;20248;-47
2024/01/11 05:51:58;;;;;;;6.87;6.17;;;16.40;54.00;17.00;102271.00;;;;5071575;28;20343;-47
2024/01/11 05:54:25;;;;;;;7.47;6.77;;;16.40;54.10;17.00;102275.00;;;;5071683;28;20719;-47
2024/01/11 05:56:55;;;;;;;7.37;6.67;;;16.40;54.00;17.00;102280.00;;;;5071028;28;20173;-47
2024/01/11 05:59:21;;;;;;;6.73;6.13;;;16.40;53.90;17.00;102282.00;;;;5071601;28;20235;-47
2024/01/11 06:01:47;;;;;;;7.27;6.57;;;16.40;54.00;17.00;102283.00;;;;5070687;28;20207;-47
2024/01/11 06:04:13;;;;;;;7.73;6.63;;;16.40;54.00;17.00;102291.00;;;;5072309;28;20209;-47
2024/01/11 06:06:40;;;;;;;7.17;6.47;;;16.40;53.90;17.00;102298.00;;;;5078635;28;20195;-47
2024/01/11 06:09:06;;;;;;;6.90;6.20;;;16.40;53.90;17.00;102301.00;;;;5081811;28;20258;-47
2024/01/11 06:11:31;;;;;;;8.27;6.80;;;16.30;53.80;17.00;102306.00;;;;5076092;28;20181;-47
2024/01/11 06:13:57;;;;;;;7.37;6.67;;;16.40;53.80;17.00;102315.00;;;;5075122;28;20277;-47
2024/01/11 06:16:23;;;;;;;6.90;6.30;;;16.40;53.80;17.00;102305.00;;;;5078407;28;20539;-47
2024/01/11 06:18:50;;;;;;;7.37;6.67;;;16.30;53.70;17.00;102306.00;;;;5072461;28;20260;-48
2024/01/11 06:21:16;;;;;;;6.60;6.00;;;16.30;53.70;17.00;102305.00;;;;5081852;28;20315;-48
2024/01/11 06:23:45;;;;;;;7.50;6.80;;;16.40;53.80;17.00;102301.00;;;;5080237;28;20711;-47
2024/01/11 06:26:11;;;;;;;7.33;6.63;;;16.40;53.80;17.00;102303.00;;;;5071164;28;20182;-47
2024/01/11 06:28:37;;;;;;;7.53;6.83;;;16.40;53.80;17.00;102317.00;;;;5051386;28;20679;-47
2024/01/11 06:31:03;;;;;;;7.43;6.80;;;16.40;53.80;17.00;102317.00;;;;5070045;28;20189;-47
2024/01/11 06:33:29;;;;;;;7.00;6.40;;;16.40;53.80;17.00;102324.00;;;;5071219;28;20172;-47
2024/01/11 06:35:55;;;;;;;6.97;6.37;;;16.40;53.80;17.00;102304.00;;;;5070683;28;20167;-47
2024/01/11 06:38:21;;;;;;;7.03;6.33;;;16.40;53.50;17.00;102301.00;;;;5070479;28;20175;-47
2024/01/11 06:40:48;;;;;;;7.03;6.40;;;16.40;53.50;17.00;102303.00;;;;5070655;28;20197;-47
2024/01/11 06:43:14;;;;;;;6.73;6.13;;;16.40;53.50;17.00;102313.00;;;;5071201;28;20663;-47
2024/01/11 06:45:42;;;;;;;7.17;6.47;;;16.40;53.70;17.00;102307.00;;;;5072358;28;20178;-47
2024/01/11 06:48:08;;;;;;;7.67;6.97;;;16.40;53.60;17.00;102314.00;;;;5070754;28;20166;-47
2024/01/11 06:50:34;;;;;;;7.67;6.90;;;16.50;53.60;17.00;102306.00;;;;5071007;28;20176;-46
2024/01/11 06:53:00;;;;;;;7.10;6.50;;;16.40;53.50;17.00;102311.00;;;;5070872;28;20186;-47
2024/01/11 06:55:26;;;;;;;7.50;6.80;;;16.40;53.40;17.00;102316.00;;;;5070302;28;20230;-46
2024/01/11 06:57:52;;;;;;;7.40;6.70;;;16.40;53.50;17.00;102309.00;;;;5069623;28;20196;-47
2024/01/11 07:00:18;;;;;;;7.17;6.47;;;16.40;53.50;17.00;102298.00;;;;5069831;28;20180;-47
2024/01/11 07:02:43;;;;;;;6.83;6.23;;;16.40;53.50;17.00;102300.00;;;;5070249;28;20683;-46
2024/01/11 07:05:09;;;;;;;7.00;6.40;;;16.40;53.40;17.00;102310.00;;;;5070282;28;20197;-46
2024/01/11 07:07:35;;;;;;;7.30;6.70;;;16.40;53.30;17.00;102306.00;;;;5069739;28;20178;-47
2024/01/11 07:10:01;;;;;;;7.80;7.00;;;16.40;53.20;17.00;102316.00;;;;5067427;28;20261;-46
2024/01/11 07:12:27;;;;;;;7.57;6.87;;;16.40;53.30;17.00;102314.00;;;;5070605;28;20171;-47
2024/01/11 07:14:52;;;;;;;7.90;7.20;;;16.40;53.30;17.00;102311.00;;;;5069944;28;20201;-46
2024/01/11 07:17:18;;;;;;;7.90;7.20;;;16.40;53.40;17.00;102319.00;;;;5069184;28;20182;-47
2024/01/11 07:19:44;;;;;;;8.10;7.37;;;16.40;53.30;17.00;102323.00;;;;5051556;28;20234;-47
2024/01/11 07:22:10;;;;;;;8.00;7.30;;;16.40;53.30;17.00;102331.00;;;;5069746;28;20183;-46
2024/01/11 07:24:37;;;;;;;7.97;7.27;;;16.40;53.30;17.00;102343.00;;;;5069833;28;20594;-47
2024/01/11 07:27:06;;;;;;;7.47;6.87;;;16.40;53.40;17.00;102351.00;;;;5069253;28;20179;-47
2024/01/11 07:29:32;;;;;;;7.40;6.77;;;16.40;53.50;17.00;102354.00;;;;5069374;28;20238;-47
2024/01/11 07:31:58;;;;;;;7.97;7.27;;;16.40;53.30;17.00;102361.00;;;;5069081;28;20171;-46
2024/01/11 07:34:24;;;;;;;7.87;7.17;;;16.50;53.30;17.00;102356.00;;;;5069723;28;20211;-46
2024/01/11 07:36:51;;;;;;;7.90;7.20;;;16.40;53.30;17.00;102347.00;;;;5069330;28;20233;-47
2024/01/11 07:39:17;;;;;;;8.23;7.43;;;16.40;53.20;17.00;102351.00;;;;5069577;28;20233;-46
2024/01/11 07:41:43;;;;;;;7.73;7.03;;;16.40;53.20;17.00;102355.00;;;;5069203;28;20187;-47
2024/01/11 07:44:08;;;;;;;7.33;6.63;;;16.40;53.20;17.00;102362.00;;;;5069202;28;20266;-47
2024/01/11 07:46:34;;;;;;;8.10;7.30;;;16.30;53.90;17.00;102368.00;;;;5069420;28;20846;-47
2024/01/11 07:49:00;;;;;;;7.90;7.20;;;16.30;53.20;17.00;102378.00;;;;5050538;28;20202;-47
2024/01/11 07:51:26;;;;;;;7.90;7.20;;;16.30;53.30;17.00;102387.00;;;;5068796;28;20177;-47
2024/01/11 07:53:53;;;;;;;8.30;7.50;;;16.30;53.20;17.00;102375.00;;;;5069458;28;20194;-47
2024/01/11 07:56:18;;;;;;;7.63;6.93;;;16.40;53.20;17.00;102381.00;;;;5076729;28;20647;-47
2024/01/11 07:58:44;;;;;;;7.47;6.87;;;16.40;53.10;17.00;102369.00;;;;5069125;28;20212;-47
2024/01/11 08:01:10;;;;;;;7.93;7.13;;;16.40;53.10;17.00;102385.00;;;;5082306;28;20175;-46
2024/01/11 08:03:35;;;;;;;8.00;7.30;;;16.40;53.10;17.00;102378.00;;;;5072095;28;20205;-47
2024/01/11 08:06:01;;;;;;;8.13;7.33;;;16.40;53.20;17.00;102364.00;;;;5070330;28;20265;-47
2024/01/11 08:08:27;;;;;;;7.80;7.10;;;16.40;53.10;17.00;102382.00;;;;5051963;28;20170;-47
2024/01/11 08:10:53;;;;;;;8.07;7.37;;;16.40;53.10;17.00;102400.00;;;;5069941;28;20177;-47
2024/01/11 08:13:21;;;;;;;8.10;7.30;;;16.40;53.00;17.00;102391.00;;;;5072591;28;20179;-48
2024/01/11 08:15:47;;;;;;;7.90;7.20;;;16.40;53.00;17.00;102368.00;;;;5076603;28;20181;-47
2024/01/11 08:18:13;;;;;;;8.17;7.40;;;16.40;53.10;17.00;102363.00;;;;5050564;28;20174;-47
2024/01/11 08:20:39;;;;;;;7.77;7.07;;;16.40;53.10;17.00;102351.00;;;;5069290;28;20186;-47
2024/01/11 08:23:06;;;;;;;7.63;6.93;;;16.40;53.00;17.00;102365.00;;;;5051780;28;20172;-47
2024/01/11 08:25:32;;;;;;;8.17;7.47;;;16.40;53.00;17.00;102351.00;;;;5067764;28;20227;-47
2024/01/11 08:27:58;;;;;;;8.37;7.57;;;16.40;53.00;17.00;102371.00;;;;5066819;28;20578;-49
2024/01/11 08:30:23;;;;;;;8.20;7.40;;;16.30;53.00;17.00;102338.00;;;;5073231;28;20229;-47
2024/01/11 08:32:49;;;;;;;7.90;7.20;;;16.40;53.10;17.00;102362.00;;;;5068280;28;20179;-48
2024/01/11 08:35:15;;;;;;;8.23;7.53;;;16.40;53.10;17.00;102362.00;;;;5068320;28;20678;-47
2024/01/11 08:37:41;;;;;;;8.40;7.63;;;16.40;53.10;17.00;102368.00;;;;5068468;28;20204;-46
2024/01/11 08:40:09;;;;;;;8.57;7.77;;;16.40;53.00;17.00;102373.00;;;;5078057;28;20214;-46
2024/01/11 08:42:35;;;;;;;8.43;7.73;;;16.40;53.10;17.00;102370.00;;;;5078599;28;20179;-47
2024/01/11 08:45:06;;;;;;;8.20;7.50;;;16.30;52.90;17.00;102371.00;;;;5074752;28;20213;-46
2024/01/11 08:47:33;;;;;;;8.40;7.70;;;16.40;53.10;17.00;102367.00;;;;5078841;28;20191;-48
2024/01/11 08:49:59;;;;;;;7.90;7.23;;;16.40;53.00;17.00;102360.00;;;;5075248;28;20224;-47
2024/01/11 08:52:24;;;;;;;8.40;7.70;;;16.40;53.00;17.00;102364.00;;;;5076557;28;20606;-47
2024/01/11 08:54:50;;;;;;;8.07;7.30;;;16.40;53.00;17.00;102375.00;;;;5077088;28;20262;-48
2024/01/11 08:57:17;;;;;;;8.07;7.37;;;16.40;53.10;17.00;102382.00;;;;5081395;28;20639;-48
2024/01/11 08:59:42;;;;;;;7.87;7.17;;;16.40;53.10;17.00;102383.00;;;;5081997;28;20195;-48
2024/01/11 09:02:08;;;;;;;7.80;7.10;;;16.40;53.00;17.00;102389.00;;;;5081430;28;20701;-48
2024/01/11 09:04:34;;;;;;;8.43;7.73;;;16.50;53.20;17.00;102392.00;;;;5067802;28;20235;-47
2024/01/11 09:07:00;;;;;;;8.70;7.90;;;16.40;53.10;17.00;102386.00;;;;5067277;28;20252;-47
2024/01/11 09:09:26;;;;;;;8.10;7.40;;;16.40;53.10;17.00;102381.00;;;;5074205;28;20250;-47
2024/01/11 09:11:51;;;;;;;8.53;7.80;;;16.40;53.20;17.00;102390.00;;;;5079088;28;20564;-46
2024/01/11 09:14:17;;;;;;;8.20;7.50;;;16.50;53.10;17.00;102396.00;;;;5074952;28;20198;-46
2024/01/11 09:16:44;;;;;;;8.13;7.37;;;16.50;53.00;17.00;102397.00;;;;5080430;28;20180;-46
2024/01/11 09:19:10;;;;;;;8.50;7.70;;;16.50;53.20;17.00;102395.00;;;;5084705;28;20659;-47
2024/01/11 09:21:36;;;;;;;7.93;7.23;;;16.40;53.00;17.00;102404.00;;;;5070888;28;20180;-48
2024/01/11 09:24:02;;;;;;;8.53;7.73;;;16.40;53.10;17.00;102408.00;;;;5071301;28;20202;-46
2024/01/11 09:26:28;;;;;;;8.33;7.53;;;16.50;53.10;17.10;102391.00;;;;5053908;28;20183;-46
2024/01/11 09:28:53;;;;;;;8.13;7.43;;;16.50;53.10;17.10;102395.00;;;;5070284;28;20894;-46
2024/01/11 09:31:19;;;;;;;8.10;7.30;;;16.50;53.10;17.10;102400.00;;;;5071156;28;20177;-47
2024/01/11 09:33:45;;;;;;;8.50;7.80;;;16.40;53.00;17.10;102405.00;;;;5054057;28;20281;-47
2024/01/11 09:36:12;;;;;;;8.03;7.33;;;16.50;53.80;17.00;102412.00;;;;5071322;28;20177;-47
2024/01/11 09:38:38;;;;;;;7.90;7.20;;;16.50;53.20;17.10;102410.00;;;;5070377;28;20321;-47
2024/01/11 09:41:08;;;;;;;7.97;7.27;;;16.50;53.20;17.00;102418.00;;;;5069518;28;20186;-47
2024/01/11 09:43:34;;;;;;;8.53;7.73;;;16.50;53.40;17.10;102415.00;;;;5071449;28;20828;-47
2024/01/11 09:46:05;;;;;;;7.80;7.20;;;16.40;53.20;17.10;102423.00;;;;5081607;28;20573;-47
2024/01/11 09:48:40;;;;;;;7.80;7.10;;;16.50;53.40;17.00;102426.00;;;;5050993;28;20170;-47
2024/01/11 09:51:13;;;;;;;7.77;7.07;;;16.50;53.20;17.10;102416.00;;;;5072183;28;20527;-48
2024/01/11 09:53:39;;;;;;;8.17;7.37;;;16.40;53.20;17.10;102429.00;;;;5071558;28;20227;-46
2024/01/11 09:56:08;;;;;;;7.50;6.90;;;16.40;53.20;17.00;102435.00;;;;5048883;28;20180;-47
2024/01/11 09:58:36;;;;;;;7.97;7.27;;;16.50;53.40;17.10;102428.00;;;;5061933;28;20173;-47
2024/01/11 10:01:02;;;;;;;8.00;7.20;;;16.40;53.30;17.10;102424.00;;;;5072230;28;20202;-47
2024/01/11 10:03:28;;;;;;;8.03;7.33;;;16.50;53.20;17.10;102416.00;;;;5024754;28;20265;-47
2024/01/11 10:05:59;;;;;;;7.80;7.10;;;16.50;53.30;17.10;102416.00;;;;5071876;28;20606;-47
2024/01/11 10:08:25;;;;;;;8.20;7.50;;;16.40;53.30;17.10;102421.00;;;;5076393;28;20367;-48
2024/01/11 10:10:50;;;;;;;8.17;7.47;;;16.40;53.30;17.10;102425.00;;;;5062294;28;20202;-47
2024/01/11 10:13:16;;;;;;;8.33;7.63;;;16.50;53.40;17.10;102422.00;;;;5071637;28;20181;-46
2024/01/11 10:15:46;;;;;;;7.47;6.87;;;16.50;53.30;17.10;102429.00;;;;5050939;28;20252;-47
2024/01/11 10:18:12;;;;;;;8.00;7.30;;;16.50;54.00;17.10;102419.00;;;;5043014;28;20180;-46
2024/01/11 10:20:38;;;;;;;8.40;7.70;;;16.50;53.50;17.10;102416.00;;;;5065982;28;20755;-46
2024/01/11 10:23:04;;;;;;;7.60;6.90;;;16.50;53.50;17.10;102425.00;;;;5071338;28;20183;-47
2024/01/11 10:25:29;;;;;;;7.93;7.23;;;16.60;53.40;17.10;102418.00;;;;5052264;28;20211;-47
2024/01/11 10:27:55;;;;;;;8.30;7.60;;;16.60;53.40;17.20;102415.00;;;;5070293;28;20192;-47
2024/01/11 10:30:23;;;;;;;8.50;7.80;;;16.60;53.50;17.20;102415.00;;;;5069998;28;20217;-47
2024/01/11 10:32:49;;;;;;;8.10;7.40;;;16.60;53.50;17.20;102414.00;;;;5071035;28;20173;-46
2024/01/11 10:35:17;;;;;;;8.07;7.30;;;16.60;53.50;17.20;102403.00;;;;5068031;28;20201;-46
2024/01/11 10:37:43;;;;;;;7.63;7.03;;;16.60;53.60;17.20;102410.00;;;;5070574;28;20545;-46
2024/01/11 10:40:12;;;;;;;7.83;7.13;;;16.50;53.60;17.20;102425.00;;;;5051449;28;20217;-47
2024/01/11 10:42:48;;;;;;;8.00;7.30;;;16.50;53.60;17.20;102410.00;;;;5070523;28;20179;-46
2024/01/11 10:45:18;;;;;;;8.50;7.70;;;16.60;53.70;17.20;102419.00;;;;5038182;28;20565;-46
2024/01/11 10:47:56;;;;;;;8.07;7.37;;;16.50;53.50;17.20;102428.00;;;;5067657;28;20259;-47
2024/01/11 10:50:23;;;;;;;8.30;7.50;;;16.60;53.60;17.20;102435.00;;;;5070095;28;20225;-47
2024/01/11 10:53:24;;;;;;;8.13;7.43;;;16.60;53.60;17.20;102424.00;;;;5051306;28;20566;-47
2024/01/11 10:55:50;;;;;;;7.80;7.10;;;16.60;53.70;17.00;102417.00;;;;5068066;28;20176;-47
2024/01/11 10:58:16;;;;;;;8.00;7.30;;;16.60;53.80;17.20;102418.00;;;;5051536;28;20309;-47
2024/01/11 11:00:41;;;;;;;7.83;7.13;;;16.60;53.60;17.20;102424.00;;;;5043857;28;20653;-53
2024/01/11 11:03:07;;;;;;;9.13;7.73;;;16.70;53.70;17.30;102431.00;;;;5062819;28;20188;-48
2024/01/11 11:05:37;;;;;;;7.87;7.10;;;16.60;53.60;17.30;102422.00;;;;5069900;28;20612;-47
2024/01/11 11:08:03;;;;;;;8.37;7.57;;;16.70;53.70;17.30;102423.00;;;;5051758;28;20703;-46
2024/01/11 11:10:30;;;;;;;7.80;7.10;;;16.70;53.70;17.30;102433.00;;;;5050532;28;20199;-47
2024/01/11 11:12:57;;;;;;;7.80;7.10;;;16.70;53.70;17.30;102412.00;;;;5061452;28;20842;-48
2024/01/11 11:15:24;;;;;;;8.60;7.70;;;16.70;53.60;17.30;102420.00;;;;5051654;28;20201;-47
2024/01/11 11:17:49;;;;;;;8.20;7.50;;;16.80;53.70;17.30;102413.00;;;;5039359;28;20179;-47
2024/01/11 11:20:16;;;;;;;8.60;7.80;;;16.70;53.70;17.30;102415.00;;;;5055223;28;20598;-46
2024/01/11 11:22:42;;;;;;;7.90;7.20;;;16.70;53.70;17.30;102414.00;;;;5052945;28;20628;-47
2024/01/11 11:25:10;;;;;;;8.23;7.50;;;16.70;53.80;17.30;102416.00;;;;5069538;28;20197;-46
2024/01/11 11:27:36;;;;;;;8.17;7.37;;;16.70;54.00;17.40;102410.00;;;;5069396;28;20178;-47
2024/01/11 11:30:04;;;;;;;7.87;7.17;;;16.70;53.90;17.40;102416.00;;;;5049976;28;20207;-47
2024/01/11 11:32:43;;;;;;;8.47;7.67;;;16.70;53.80;17.40;102404.00;;;;5068944;28;20223;-47
2024/01/11 11:35:08;;;;;;;8.27;7.57;;;16.70;53.90;17.40;102400.00;;;;5029152;28;20195;-47
2024/01/11 11:37:37;;;;;;;7.83;7.03;;;16.80;53.90;17.40;102397.00;;;;5050319;28;20671;-47